sensor_id;sensor_type;location;lat;lon;timestamp;temperature;humidity
22544;DHT22;11438;52.044;8.716;2024-02-14T00:02:09;10.70;99.90
22544;DHT22;11438;52.044;8.716;2024-02-14T00:04:34;10.80;99.90
22544;DHT22;11438;52.044;8.716;2024-02-14T00:07:00;10.80;99.90
22544;DHT22;11438;52.044;8.716;2024-02-14T00:09:25;10.80;99.90
22544;DHT22;11438;52.044;8.716;2024-02-14T00:11:51;10.80;99.90
22544;DHT22;11438;52.044;8.716;2024-02-14T00:14:17;10.80;99.90
22544;DHT22;11438;52.044;8.716;2024-02-14T00:16:44;10.80;99.90
22544;DHT22;11438;52.044;8.716;2024-02-14T00:19:10;10.90;99.90
22544;DHT22;11438;52.044;8.716;2024-02-14T00:21:35;10.90;99.90
22544;DHT22;11438;52.044;8.716;2024-02-14T00:24:01;10.80;99.90
22544;DHT22;11438;52.044;8.716;2024-02-14T00:26:27;10.90;99.90
22544;DHT22;11438;52.044;8.716;2024-02-14T00:28:52;10.90;99.90
22544;DHT22;11438;52.044;8.716;2024-02-14T00:31:18;10.90;99.90
22544;DHT22;11438;52.044;8.716;2024-02-14T00:33:43;10.90;99.90
22544;DHT22;11438;52.044;8.716;2024-02-14T00:36:11;11.00;99.90
22544;DHT22;11438;52.044;8.716;2024-02-14T00:38:37;11.00;99.90
22544;DHT22;11438;52.044;8.716;2024-02-14T00:41:02;11.00;99.90
22544;DHT22;11438;52.044;8.716;2024-02-14T00:43:28;11.00;99.90
22544;DHT22;11438;52.044;8.716;2024-02-14T00:45:54;11.00;99.90
22544;DHT22;11438;52.044;8.716;2024-02-14T00:48:22;11.10;99.90
22544;DHT22;11438;52.044;8.716;2024-02-14T00:50:47;11.10;99.90
22544;DHT22;11438;52.044;8.716;2024-02-14T00:53:13;11.10;99.90
22544;DHT22;11438;52.044;8.716;2024-02-14T00:55:39;11.10;99.90
22544;DHT22;11438;52.044;8.716;2024-02-14T00:58:04;11.10;99.90
22544;DHT22;11438;52.044;8.716;2024-02-14T01:00:30;11.10;99.90
22544;DHT22;11438;52.044;8.716;2024-02-14T01:02:57;11.20;99.90
22544;DHT22;11438;52.044;8.716;2024-02-14T01:05:23;11.20;99.90
22544;DHT22;11438;52.044;8.716;2024-02-14T01:07:48;11.20;99.90
22544;DHT22;11438;52.044;8.716;2024-02-14T01:10:14;11.20;99.90
22544;DHT22;11438;52.044;8.716;2024-02-14T01:12:39;11.20;99.90
22544;DHT22;11438;52.044;8.716;2024-02-14T01:15:06;11.20;99.90
22544;DHT22;11438;52.044;8.716;2024-02-14T01:17:31;11.30;99.90
22544;DHT22;11438;52.044;8.716;2024-02-14T01:19:57;11.30;99.90
22544;DHT22;11438;52.044;8.716;2024-02-14T01:22:23;11.30;99.90
22544;DHT22;11438;52.044;8.716;2024-02-14T01:24:49;11.30;99.90
22544;DHT22;11438;52.044;8.716;2024-02-14T01:27:14;11.30;99.90
22544;DHT22;11438;52.044;8.716;2024-02-14T01:29:41;11.30;99.90
22544;DHT22;11438;52.044;8.716;2024-02-14T01:32:06;11.40;99.90
22544;DHT22;11438;52.044;8.716;2024-02-14T01:34:32;11.40;99.90
22544;DHT22;11438;52.044;8.716;2024-02-14T01:36:58;11.40;99.90
22544;DHT22;11438;52.044;8.716;2024-02-14T01:39:23;11.40;99.90
22544;DHT22;11438;52.044;8.716;2024-02-14T01:41:49;11.40;99.90
22544;DHT22;11438;52.044;8.716;2024-02-14T01:44:15;11.40;99.90
22544;DHT22;11438;52.044;8.716;2024-02-14T01:46:42;11.40;99.90
22544;DHT22;11438;52.044;8.716;2024-02-14T01:49:09;11.50;99.90
22544;DHT22;11438;52.044;8.716;2024-02-14T01:51:38;11.50;99.90
22544;DHT22;11438;52.044;8.716;2024-02-14T01:54:05;11.40;99.90
22544;DHT22;11438;52.044;8.716;2024-02-14T01:56:31;11.50;99.90
22544;DHT22;11438;52.044;8.716;2024-02-14T01:58:58;11.50;99.90
22544;DHT22;11438;52.044;8.716;2024-02-14T02:01:24;11.50;99.90
22544;DHT22;11438;52.044;8.716;2024-02-14T02:03:49;11.50;99.90
22544;DHT22;11438;52.044;8.716;2024-02-14T02:06:15;11.40;99.90
22544;DHT22;11438;52.044;8.716;2024-02-14T02:08:43;11.40;99.90
22544;DHT22;11438;52.044;8.716;2024-02-14T02:11:09;11.40;99.90
22544;DHT22;11438;52.044;8.716;2024-02-14T02:13:35;11.40;99.90
22544;DHT22;11438;52.044;8.716;2024-02-14T02:16:00;11.40;99.90
22544;DHT22;11438;52.044;8.716;2024-02-14T02:18:30;11.40;99.90
22544;DHT22;11438;52.044;8.716;2024-02-14T02:20:56;11.40;99.90
22544;DHT22;11438;52.044;8.716;2024-02-14T02:23:22;11.40;99.90
22544;DHT22;11438;52.044;8.716;2024-02-14T02:25:48;11.40;99.90
22544;DHT22;11438;52.044;8.716;2024-02-14T02:28:13;11.30;99.90
22544;DHT22;11438;52.044;8.716;2024-02-14T02:30:40;11.30;99.90
22544;DHT22;11438;52.044;8.716;2024-02-14T02:33:05;11.30;99.90
22544;DHT22;11438;52.044;8.716;2024-02-14T02:35:33;11.30;99.90
22544;DHT22;11438;52.044;8.716;2024-02-14T02:37:59;11.30;99.90
22544;DHT22;11438;52.044;8.716;2024-02-14T02:40:25;11.30;99.90
22544;DHT22;11438;52.044;8.716;2024-02-14T02:42:51;11.30;99.90
22544;DHT22;11438;52.044;8.716;2024-02-14T02:45:17;11.30;99.90
22544;DHT22;11438;52.044;8.716;2024-02-14T02:47:42;11.30;99.90
22544;DHT22;11438;52.044;8.716;2024-02-14T02:50:08;11.30;99.90
22544;DHT22;11438;52.044;8.716;2024-02-14T02:52:34;11.30;99.90
22544;DHT22;11438;52.044;8.716;2024-02-14T02:55:00;11.30;99.90
22544;DHT22;11438;52.044;8.716;2024-02-14T02:57:27;11.30;99.90
22544;DHT22;11438;52.044;8.716;2024-02-14T02:59:52;11.30;99.90
22544;DHT22;11438;52.044;8.716;2024-02-14T03:02:19;11.30;99.90
22544;DHT22;11438;52.044;8.716;2024-02-14T03:04:46;11.30;99.90
22544;DHT22;11438;52.044;8.716;2024-02-14T03:07:12;11.30;99.90
22544;DHT22;11438;52.044;8.716;2024-02-14T03:09:38;11.30;99.90
22544;DHT22;11438;52.044;8.716;2024-02-14T03:12:04;11.30;99.90
22544;DHT22;11438;52.044;8.716;2024-02-14T03:14:30;11.40;99.90
22544;DHT22;11438;52.044;8.716;2024-02-14T03:17:04;11.30;99.90
22544;DHT22;11438;52.044;8.716;2024-02-14T03:19:30;11.40;99.90
22544;DHT22;11438;52.044;8.716;2024-02-14T03:21:56;11.40;99.90
22544;DHT22;11438;52.044;8.716;2024-02-14T03:24:22;11.40;99.90
22544;DHT22;11438;52.044;8.716;2024-02-14T03:26:48;11.40;99.90
22544;DHT22;11438;52.044;8.716;2024-02-14T03:29:16;11.40;99.90
22544;DHT22;11438;52.044;8.716;2024-02-14T03:31:42;11.40;99.90
22544;DHT22;11438;52.044;8.716;2024-02-14T03:34:09;11.40;99.90
22544;DHT22;11438;52.044;8.716;2024-02-14T03:36:37;11.40;99.90
22544;DHT22;11438;52.044;8.716;2024-02-14T03:39:03;11.50;99.90
22544;DHT22;11438;52.044;8.716;2024-02-14T03:41:30;11.50;99.90
22544;DHT22;11438;52.044;8.716;2024-02-14T03:43:55;11.50;99.90
22544;DHT22;11438;52.044;8.716;2024-02-14T03:46:23;11.50;99.90
22544;DHT22;11438;52.044;8.716;2024-02-14T03:48:49;11.50;99.90
22544;DHT22;11438;52.044;8.716;2024-02-14T03:51:14;11.50;99.90
22544;DHT22;11438;52.044;8.716;2024-02-14T03:53:41;11.50;99.90
22544;DHT22;11438;52.044;8.716;2024-02-14T03:56:07;11.50;99.90
22544;DHT22;11438;52.044;8.716;2024-02-14T03:58:32;11.50;99.90
22544;DHT22;11438;52.044;8.716;2024-02-14T04:01:02;11.50;99.90
22544;DHT22;11438;52.044;8.716;2024-02-14T04:03:28;11.60;99.90
22544;DHT22;11438;52.044;8.716;2024-02-14T04:05:54;11.60;99.90
22544;DHT22;11438;52.044;8.716;2024-02-14T04:08:20;11.60;99.90
22544;DHT22;11438;52.044;8.716;2024-02-14T04:10:45;11.60;99.90
22544;DHT22;11438;52.044;8.716;2024-02-14T04:13:11;11.60;99.90
22544;DHT22;11438;52.044;8.716;2024-02-14T04:15:36;11.60;99.90
22544;DHT22;11438;52.044;8.716;2024-02-14T04:18:02;11.60;99.90
22544;DHT22;11438;52.044;8.716;2024-02-14T04:20:29;11.60;99.90
22544;DHT22;11438;52.044;8.716;2024-02-14T04:22:55;11.60;99.90
22544;DHT22;11438;52.044;8.716;2024-02-14T04:25:20;11.60;99.90
22544;DHT22;11438;52.044;8.716;2024-02-14T04:27:46;11.60;99.90
22544;DHT22;11438;52.044;8.716;2024-02-14T04:30:12;11.60;99.90
22544;DHT22;11438;52.044;8.716;2024-02-14T04:32:37;11.60;99.90
22544;DHT22;11438;52.044;8.716;2024-02-14T04:35:03;11.60;99.90
22544;DHT22;11438;52.044;8.716;2024-02-14T04:37:29;11.70;99.90
22544;DHT22;11438;52.044;8.716;2024-02-14T04:39:54;11.70;99.90
22544;DHT22;11438;52.044;8.716;2024-02-14T04:42:20;11.70;99.90
22544;DHT22;11438;52.044;8.716;2024-02-14T04:44:45;11.70;99.90
22544;DHT22;11438;52.044;8.716;2024-02-14T04:47:11;11.70;99.90
22544;DHT22;11438;52.044;8.716;2024-02-14T04:49:36;11.70;99.90
22544;DHT22;11438;52.044;8.716;2024-02-14T04:52:03;11.70;99.90
22544;DHT22;11438;52.044;8.716;2024-02-14T04:54:29;11.70;99.90
22544;DHT22;11438;52.044;8.716;2024-02-14T04:56:55;11.70;99.90
22544;DHT22;11438;52.044;8.716;2024-02-14T04:59:20;11.70;99.90
22544;DHT22;11438;52.044;8.716;2024-02-14T05:01:46;11.70;99.90
22544;DHT22;11438;52.044;8.716;2024-02-14T05:04:12;11.70;99.90
22544;DHT22;11438;52.044;8.716;2024-02-14T05:06:38;11.70;99.90
22544;DHT22;11438;52.044;8.716;2024-02-14T05:09:04;11.80;99.90
22544;DHT22;11438;52.044;8.716;2024-02-14T05:11:29;11.70;99.90
22544;DHT22;11438;52.044;8.716;2024-02-14T05:13:55;11.80;99.90
22544;DHT22;11438;52.044;8.716;2024-02-14T05:16:20;11.80;99.90
22544;DHT22;11438;52.044;8.716;2024-02-14T05:18:46;11.80;99.90
22544;DHT22;11438;52.044;8.716;2024-02-14T05:21:12;11.80;99.90
22544;DHT22;11438;52.044;8.716;2024-02-14T05:23:37;11.80;99.90
22544;DHT22;11438;52.044;8.716;2024-02-14T05:26:03;11.80;99.90
22544;DHT22;11438;52.044;8.716;2024-02-14T05:28:29;11.80;99.90
22544;DHT22;11438;52.044;8.716;2024-02-14T05:30:55;11.90;99.90
22544;DHT22;11438;52.044;8.716;2024-02-14T05:33:21;11.90;99.90
22544;DHT22;11438;52.044;8.716;2024-02-14T05:35:51;11.80;99.90
22544;DHT22;11438;52.044;8.716;2024-02-14T05:38:16;11.90;99.90
22544;DHT22;11438;52.044;8.716;2024-02-14T05:40:45;11.90;99.90
22544;DHT22;11438;52.044;8.716;2024-02-14T05:43:11;11.90;99.90
22544;DHT22;11438;52.044;8.716;2024-02-14T05:45:36;11.80;99.90
22544;DHT22;11438;52.044;8.716;2024-02-14T05:48:02;11.80;99.90
22544;DHT22;11438;52.044;8.716;2024-02-14T05:50:28;11.90;99.90
22544;DHT22;11438;52.044;8.716;2024-02-14T05:52:54;11.90;99.90
22544;DHT22;11438;52.044;8.716;2024-02-14T05:55:19;11.80;99.90
22544;DHT22;11438;52.044;8.716;2024-02-14T05:57:45;11.90;99.90
22544;DHT22;11438;52.044;8.716;2024-02-14T06:00:11;11.90;99.90
22544;DHT22;11438;52.044;8.716;2024-02-14T06:02:38;11.90;99.90
22544;DHT22;11438;52.044;8.716;2024-02-14T06:05:05;11.90;99.90
22544;DHT22;11438;52.044;8.716;2024-02-14T06:07:37;11.90;99.90
22544;DHT22;11438;52.044;8.716;2024-02-14T06:10:03;11.90;99.90
22544;DHT22;11438;52.044;8.716;2024-02-14T06:12:28;11.90;99.90
22544;DHT22;11438;52.044;8.716;2024-02-14T06:14:55;11.90;99.90
22544;DHT22;11438;52.044;8.716;2024-02-14T06:17:20;11.90;99.90
22544;DHT22;11438;52.044;8.716;2024-02-14T06:19:46;11.90;99.90
22544;DHT22;11438;52.044;8.716;2024-02-14T06:22:11;11.90;99.90
22544;DHT22;11438;52.044;8.716;2024-02-14T06:24:37;11.90;99.90
22544;DHT22;11438;52.044;8.716;2024-02-14T06:27:03;11.90;99.90
22544;DHT22;11438;52.044;8.716;2024-02-14T06:29:28;11.90;99.90
22544;DHT22;11438;52.044;8.716;2024-02-14T06:31:54;11.90;99.90
22544;DHT22;11438;52.044;8.716;2024-02-14T06:34:19;11.90;99.90
22544;DHT22;11438;52.044;8.716;2024-02-14T06:36:46;11.90;99.90
22544;DHT22;11438;52.044;8.716;2024-02-14T06:39:12;11.90;99.90
22544;DHT22;11438;52.044;8.716;2024-02-14T06:41:37;11.90;99.90
22544;DHT22;11438;52.044;8.716;2024-02-14T06:44:04;11.90;99.90
22544;DHT22;11438;52.044;8.716;2024-02-14T06:46:30;12.00;99.90
22544;DHT22;11438;52.044;8.716;2024-02-14T06:48:55;12.00;99.90
22544;DHT22;11438;52.044;8.716;2024-02-14T06:51:22;12.00;99.90
22544;DHT22;11438;52.044;8.716;2024-02-14T06:53:48;12.00;99.90
22544;DHT22;11438;52.044;8.716;2024-02-14T06:56:14;12.00;99.90
22544;DHT22;11438;52.044;8.716;2024-02-14T06:58:40;12.10;99.90
22544;DHT22;11438;52.044;8.716;2024-02-14T07:01:05;12.00;99.90
22544;DHT22;11438;52.044;8.716;2024-02-14T07:03:31;12.10;99.90
22544;DHT22;11438;52.044;8.716;2024-02-14T07:05:57;12.10;99.90
22544;DHT22;11438;52.044;8.716;2024-02-14T07:08:22;12.10;99.90
22544;DHT22;11438;52.044;8.716;2024-02-14T07:10:49;12.10;99.90
22544;DHT22;11438;52.044;8.716;2024-02-14T07:13:14;12.20;99.90
22544;DHT22;11438;52.044;8.716;2024-02-14T07:15:40;12.10;99.90
22544;DHT22;11438;52.044;8.716;2024-02-14T07:18:05;12.10;99.90
22544;DHT22;11438;52.044;8.716;2024-02-14T07:20:35;12.20;99.90
22544;DHT22;11438;52.044;8.716;2024-02-14T07:23:00;12.20;99.90
22544;DHT22;11438;52.044;8.716;2024-02-14T07:25:26;12.20;99.90
22544;DHT22;11438;52.044;8.716;2024-02-14T07:27:51;12.10;99.90
22544;DHT22;11438;52.044;8.716;2024-02-14T07:30:17;12.20;99.90
22544;DHT22;11438;52.044;8.716;2024-02-14T07:32:43;12.10;99.90
22544;DHT22;11438;52.044;8.716;2024-02-14T07:35:09;12.20;99.90
22544;DHT22;11438;52.044;8.716;2024-02-14T07:37:35;12.20;99.90
22544;DHT22;11438;52.044;8.716;2024-02-14T07:40:01;12.20;99.90
22544;DHT22;11438;52.044;8.716;2024-02-14T07:42:26;12.20;99.90
22544;DHT22;11438;52.044;8.716;2024-02-14T07:44:52;12.20;99.90
22544;DHT22;11438;52.044;8.716;2024-02-14T07:47:18;12.20;99.90
22544;DHT22;11438;52.044;8.716;2024-02-14T07:49:44;12.20;99.90
22544;DHT22;11438;52.044;8.716;2024-02-14T07:52:10;12.20;99.90
22544;DHT22;11438;52.044;8.716;2024-02-14T07:54:35;12.30;99.90
22544;DHT22;11438;52.044;8.716;2024-02-14T07:57:01;12.30;99.90
22544;DHT22;11438;52.044;8.716;2024-02-14T07:59:27;12.30;99.90
22544;DHT22;11438;52.044;8.716;2024-02-14T08:01:52;12.30;99.90
22544;DHT22;11438;52.044;8.716;2024-02-14T08:04:18;12.40;99.90
22544;DHT22;11438;52.044;8.716;2024-02-14T08:06:47;12.40;99.90
22544;DHT22;11438;52.044;8.716;2024-02-14T08:09:14;12.40;99.90
22544;DHT22;11438;52.044;8.716;2024-02-14T08:11:40;12.40;99.90
22544;DHT22;11438;52.044;8.716;2024-02-14T08:14:05;12.40;99.90
22544;DHT22;11438;52.044;8.716;2024-02-14T08:16:31;12.50;99.90
22544;DHT22;11438;52.044;8.716;2024-02-14T08:18:57;12.50;99.90
22544;DHT22;11438;52.044;8.716;2024-02-14T08:21:27;12.50;99.90
22544;DHT22;11438;52.044;8.716;2024-02-14T08:23:54;12.50;99.90
22544;DHT22;11438;52.044;8.716;2024-02-14T08:26:21;12.50;99.90
22544;DHT22;11438;52.044;8.716;2024-02-14T08:28:48;12.50;99.90
22544;DHT22;11438;52.044;8.716;2024-02-14T08:31:13;12.60;99.90
22544;DHT22;11438;52.044;8.716;2024-02-14T08:33:39;12.60;99.90
22544;DHT22;11438;52.044;8.716;2024-02-14T08:36:05;12.60;99.90
22544;DHT22;11438;52.044;8.716;2024-02-14T08:38:31;12.60;99.90
22544;DHT22;11438;52.044;8.716;2024-02-14T08:40:57;12.60;99.90
22544;DHT22;11438;52.044;8.716;2024-02-14T08:43:23;12.60;99.90
22544;DHT22;11438;52.044;8.716;2024-02-14T08:45:51;12.70;99.90
22544;DHT22;11438;52.044;8.716;2024-02-14T08:48:17;12.70;99.90
22544;DHT22;11438;52.044;8.716;2024-02-14T08:50:42;12.70;99.90
22544;DHT22;11438;52.044;8.716;2024-02-14T08:53:08;12.70;99.90
22544;DHT22;11438;52.044;8.716;2024-02-14T08:55:35;12.80;99.90
22544;DHT22;11438;52.044;8.716;2024-02-14T08:58:01;12.80;99.90
22544;DHT22;11438;52.044;8.716;2024-02-14T09:00:27;12.80;99.90
22544;DHT22;11438;52.044;8.716;2024-02-14T09:02:52;12.80;99.90
22544;DHT22;11438;52.044;8.716;2024-02-14T09:05:18;12.90;99.90
22544;DHT22;11438;52.044;8.716;2024-02-14T09:07:44;12.90;99.90
22544;DHT22;11438;52.044;8.716;2024-02-14T09:10:10;12.90;99.90
22544;DHT22;11438;52.044;8.716;2024-02-14T09:12:38;12.90;99.90
22544;DHT22;11438;52.044;8.716;2024-02-14T09:15:04;12.90;99.90
22544;DHT22;11438;52.044;8.716;2024-02-14T09:17:30;13.00;99.90
22544;DHT22;11438;52.044;8.716;2024-02-14T09:19:56;13.00;99.90
22544;DHT22;11438;52.044;8.716;2024-02-14T09:22:21;13.00;99.90
22544;DHT22;11438;52.044;8.716;2024-02-14T09:24:47;13.00;99.90
22544;DHT22;11438;52.044;8.716;2024-02-14T09:27:14;13.00;99.90
22544;DHT22;11438;52.044;8.716;2024-02-14T09:29:39;13.10;99.90
22544;DHT22;11438;52.044;8.716;2024-02-14T09:32:05;13.10;99.90
22544;DHT22;11438;52.044;8.716;2024-02-14T09:34:30;13.10;99.90
22544;DHT22;11438;52.044;8.716;2024-02-14T09:36:56;13.10;99.90
22544;DHT22;11438;52.044;8.716;2024-02-14T09:39:24;13.10;99.90
22544;DHT22;11438;52.044;8.716;2024-02-14T09:41:52;13.20;99.90
22544;DHT22;11438;52.044;8.716;2024-02-14T09:44:20;13.20;99.90
22544;DHT22;11438;52.044;8.716;2024-02-14T09:46:47;13.20;99.90
22544;DHT22;11438;52.044;8.716;2024-02-14T09:49:14;13.20;99.90
22544;DHT22;11438;52.044;8.716;2024-02-14T09:51:43;13.30;99.90
22544;DHT22;11438;52.044;8.716;2024-02-14T09:54:10;13.30;99.90
22544;DHT22;11438;52.044;8.716;2024-02-14T09:56:35;13.40;99.90
22544;DHT22;11438;52.044;8.716;2024-02-14T09:59:02;13.40;99.90
22544;DHT22;11438;52.044;8.716;2024-02-14T10:01:28;13.40;99.90
22544;DHT22;11438;52.044;8.716;2024-02-14T10:03:54;13.50;99.90
22544;DHT22;11438;52.044;8.716;2024-02-14T10:06:20;13.50;99.90
22544;DHT22;11438;52.044;8.716;2024-02-14T10:08:47;13.50;99.90
22544;DHT22;11438;52.044;8.716;2024-02-14T10:11:13;13.50;99.90
22544;DHT22;11438;52.044;8.716;2024-02-14T10:13:40;13.60;99.90
22544;DHT22;11438;52.044;8.716;2024-02-14T10:16:06;13.60;99.90
22544;DHT22;11438;52.044;8.716;2024-02-14T10:18:34;13.60;99.90
22544;DHT22;11438;52.044;8.716;2024-02-14T10:20:59;13.60;99.90
22544;DHT22;11438;52.044;8.716;2024-02-14T10:23:27;13.60;99.90
22544;DHT22;11438;52.044;8.716;2024-02-14T10:25:53;13.60;99.90
22544;DHT22;11438;52.044;8.716;2024-02-14T10:28:20;13.70;99.90
22544;DHT22;11438;52.044;8.716;2024-02-14T10:30:47;13.70;99.90
22544;DHT22;11438;52.044;8.716;2024-02-14T10:33:15;13.70;99.90
22544;DHT22;11438;52.044;8.716;2024-02-14T10:35:41;13.70;99.90
22544;DHT22;11438;52.044;8.716;2024-02-14T10:38:08;13.70;99.90
22544;DHT22;11438;52.044;8.716;2024-02-14T10:40:35;13.80;99.90
22544;DHT22;11438;52.044;8.716;2024-02-14T10:43:01;13.90;99.90
22544;DHT22;11438;52.044;8.716;2024-02-14T10:45:27;13.90;99.90
22544;DHT22;11438;52.044;8.716;2024-02-14T10:47:53;13.90;99.90
22544;DHT22;11438;52.044;8.716;2024-02-14T10:50:21;14.00;99.90
22544;DHT22;11438;52.044;8.716;2024-02-14T10:52:48;14.00;99.90
22544;DHT22;11438;52.044;8.716;2024-02-14T10:55:16;14.00;99.90
22544;DHT22;11438;52.044;8.716;2024-02-14T10:57:43;14.10;99.90
22544;DHT22;11438;52.044;8.716;2024-02-14T11:00:11;14.10;99.90
22544;DHT22;11438;52.044;8.716;2024-02-14T11:02:40;14.10;99.90
22544;DHT22;11438;52.044;8.716;2024-02-14T11:05:10;14.20;99.90
22544;DHT22;11438;52.044;8.716;2024-02-14T11:07:36;14.20;99.90
22544;DHT22;11438;52.044;8.716;2024-02-14T11:10:05;14.20;99.90
22544;DHT22;11438;52.044;8.716;2024-02-14T11:12:36;14.30;99.90
22544;DHT22;11438;52.044;8.716;2024-02-14T11:15:22;14.30;99.90
22544;DHT22;11438;52.044;8.716;2024-02-14T11:17:48;14.30;99.90
22544;DHT22;11438;52.044;8.716;2024-02-14T11:20:21;14.30;99.90
22544;DHT22;11438;52.044;8.716;2024-02-14T11:23:03;14.40;99.90
22544;DHT22;11438;52.044;8.716;2024-02-14T11:25:32;14.40;99.90
22544;DHT22;11438;52.044;8.716;2024-02-14T11:27:59;14.40;99.90
22544;DHT22;11438;52.044;8.716;2024-02-14T11:30:34;14.40;99.90
22544;DHT22;11438;52.044;8.716;2024-02-14T11:33:20;14.40;99.90
22544;DHT22;11438;52.044;8.716;2024-02-14T11:35:50;14.40;99.90
22544;DHT22;11438;52.044;8.716;2024-02-14T11:38:17;14.50;99.90
22544;DHT22;11438;52.044;8.716;2024-02-14T11:40:43;14.40;99.90
22544;DHT22;11438;52.044;8.716;2024-02-14T11:43:13;14.50;99.90
22544;DHT22;11438;52.044;8.716;2024-02-14T11:45:41;14.50;99.90
22544;DHT22;11438;52.044;8.716;2024-02-14T11:48:14;14.50;99.90
22544;DHT22;11438;52.044;8.716;2024-02-14T11:50:44;14.50;99.90
22544;DHT22;11438;52.044;8.716;2024-02-14T11:53:14;14.60;99.90
22544;DHT22;11438;52.044;8.716;2024-02-14T11:55:43;14.60;99.90
22544;DHT22;11438;52.044;8.716;2024-02-14T11:58:12;14.60;99.90
22544;DHT22;11438;52.044;8.716;2024-02-14T12:00:39;14.60;99.90
22544;DHT22;11438;52.044;8.716;2024-02-14T12:03:20;14.60;99.90
22544;DHT22;11438;52.044;8.716;2024-02-14T12:05:49;14.60;99.90
22544;DHT22;11438;52.044;8.716;2024-02-14T12:08:16;14.60;99.90
22544;DHT22;11438;52.044;8.716;2024-02-14T12:10:45;14.60;99.90
22544;DHT22;11438;52.044;8.716;2024-02-14T12:13:20;14.60;99.90
22544;DHT22;11438;52.044;8.716;2024-02-14T12:15:47;14.60;99.90
22544;DHT22;11438;52.044;8.716;2024-02-14T12:18:13;14.60;99.90
22544;DHT22;11438;52.044;8.716;2024-02-14T12:20:42;14.70;99.90
22544;DHT22;11438;52.044;8.716;2024-02-14T12:23:16;14.70;99.90
22544;DHT22;11438;52.044;8.716;2024-02-14T12:25:43;14.60;99.90
22544;DHT22;11438;52.044;8.716;2024-02-14T12:28:08;14.70;99.90
22544;DHT22;11438;52.044;8.716;2024-02-14T12:33:27;14.70;99.90
22544;DHT22;11438;52.044;8.716;2024-02-14T12:35:57;14.70;99.90
22544;DHT22;11438;52.044;8.716;2024-02-14T12:38:24;14.70;99.90
22544;DHT22;11438;52.044;8.716;2024-02-14T12:40:49;14.70;99.90
22544;DHT22;11438;52.044;8.716;2024-02-14T12:43:16;14.80;99.90
22544;DHT22;11438;52.044;8.716;2024-02-14T12:45:42;14.80;99.90
22544;DHT22;11438;52.044;8.716;2024-02-14T12:48:08;14.80;99.90
22544;DHT22;11438;52.044;8.716;2024-02-14T12:50:35;14.80;99.90
22544;DHT22;11438;52.044;8.716;2024-02-14T12:53:01;14.80;99.90
22544;DHT22;11438;52.044;8.716;2024-02-14T12:55:27;14.80;99.90
22544;DHT22;11438;52.044;8.716;2024-02-14T12:57:56;14.80;99.90
22544;DHT22;11438;52.044;8.716;2024-02-14T13:00:23;14.80;99.90
22544;DHT22;11438;52.044;8.716;2024-02-14T13:02:49;14.80;99.90
22544;DHT22;11438;52.044;8.716;2024-02-14T13:05:15;14.80;99.90
22544;DHT22;11438;52.044;8.716;2024-02-14T13:07:42;14.80;99.90
22544;DHT22;11438;52.044;8.716;2024-02-14T13:10:07;14.80;99.90
22544;DHT22;11438;52.044;8.716;2024-02-14T13:12:37;14.90;99.90
22544;DHT22;11438;52.044;8.716;2024-02-14T13:15:03;14.90;99.90
22544;DHT22;11438;52.044;8.716;2024-02-14T13:17:29;14.90;99.90
22544;DHT22;11438;52.044;8.716;2024-02-14T13:19:55;14.80;99.90
22544;DHT22;11438;52.044;8.716;2024-02-14T13:22:20;14.80;99.90
22544;DHT22;11438;52.044;8.716;2024-02-14T13:24:46;14.90;99.90
22544;DHT22;11438;52.044;8.716;2024-02-14T13:27:11;14.90;99.90
22544;DHT22;11438;52.044;8.716;2024-02-14T13:29:37;14.90;99.90
22544;DHT22;11438;52.044;8.716;2024-02-14T13:32:03;14.90;99.90
22544;DHT22;11438;52.044;8.716;2024-02-14T13:34:30;14.90;99.90
22544;DHT22;11438;52.044;8.716;2024-02-14T13:36:56;15.00;99.90
22544;DHT22;11438;52.044;8.716;2024-02-14T13:39:22;15.00;99.90
22544;DHT22;11438;52.044;8.716;2024-02-14T13:41:47;15.00;99.90
22544;DHT22;11438;52.044;8.716;2024-02-14T13:44:13;15.00;99.90
22544;DHT22;11438;52.044;8.716;2024-02-14T13:46:44;14.90;99.90
22544;DHT22;11438;52.044;8.716;2024-02-14T13:49:10;15.00;99.90
22544;DHT22;11438;52.044;8.716;2024-02-14T13:51:37;15.00;99.90
22544;DHT22;11438;52.044;8.716;2024-02-14T13:54:02;15.00;99.90
22544;DHT22;11438;52.044;8.716;2024-02-14T13:56:29;15.00;99.90
22544;DHT22;11438;52.044;8.716;2024-02-14T13:58:54;15.00;99.90
22544;DHT22;11438;52.044;8.716;2024-02-14T14:01:20;15.00;99.90
22544;DHT22;11438;52.044;8.716;2024-02-14T14:03:45;15.00;99.90
22544;DHT22;11438;52.044;8.716;2024-02-14T14:06:12;15.00;99.90
22544;DHT22;11438;52.044;8.716;2024-02-14T14:08:38;15.00;99.90
22544;DHT22;11438;52.044;8.716;2024-02-14T14:11:04;15.00;99.90
22544;DHT22;11438;52.044;8.716;2024-02-14T14:13:30;15.00;99.90
22544;DHT22;11438;52.044;8.716;2024-02-14T14:15:56;15.00;99.90
22544;DHT22;11438;52.044;8.716;2024-02-14T14:18:22;15.00;99.90
22544;DHT22;11438;52.044;8.716;2024-02-14T14:20:48;15.10;99.90
22544;DHT22;11438;52.044;8.716;2024-02-14T14:23:14;15.10;99.90
22544;DHT22;11438;52.044;8.716;2024-02-14T14:25:39;15.10;99.90
22544;DHT22;11438;52.044;8.716;2024-02-14T14:28:05;15.10;99.90
22544;DHT22;11438;52.044;8.716;2024-02-14T14:30:31;15.10;99.90
22544;DHT22;11438;52.044;8.716;2024-02-14T14:32:56;15.10;99.90
22544;DHT22;11438;52.044;8.716;2024-02-14T14:35:22;15.10;99.90
22544;DHT22;11438;52.044;8.716;2024-02-14T14:37:47;15.10;99.90
22544;DHT22;11438;52.044;8.716;2024-02-14T14:40:13;15.10;99.90
22544;DHT22;11438;52.044;8.716;2024-02-14T14:42:38;15.10;99.90
22544;DHT22;11438;52.044;8.716;2024-02-14T14:45:04;15.20;99.90
22544;DHT22;11438;52.044;8.716;2024-02-14T14:47:29;15.10;99.90
22544;DHT22;11438;52.044;8.716;2024-02-14T14:49:55;15.20;99.90
22544;DHT22;11438;52.044;8.716;2024-02-14T14:52:20;15.10;99.90
22544;DHT22;11438;52.044;8.716;2024-02-14T14:54:46;15.20;99.90
22544;DHT22;11438;52.044;8.716;2024-02-14T14:57:11;15.20;99.90
22544;DHT22;11438;52.044;8.716;2024-02-14T14:59:41;15.20;99.90
22544;DHT22;11438;52.044;8.716;2024-02-14T15:02:07;15.20;99.90
22544;DHT22;11438;52.044;8.716;2024-02-14T15:04:32;15.20;99.90
22544;DHT22;11438;52.044;8.716;2024-02-14T15:07:02;15.20;99.90
22544;DHT22;11438;52.044;8.716;2024-02-14T15:09:28;15.20;99.90
22544;DHT22;11438;52.044;8.716;2024-02-14T15:11:53;15.20;99.90
22544;DHT22;11438;52.044;8.716;2024-02-14T15:14:19;15.20;99.90
22544;DHT22;11438;52.044;8.716;2024-02-14T15:16:45;15.20;99.90
22544;DHT22;11438;52.044;8.716;2024-02-14T15:19:10;15.20;99.90
22544;DHT22;11438;52.044;8.716;2024-02-14T15:21:36;15.20;99.90
22544;DHT22;11438;52.044;8.716;2024-02-14T15:24:02;15.20;99.90
22544;DHT22;11438;52.044;8.716;2024-02-14T15:26:29;15.20;99.90
22544;DHT22;11438;52.044;8.716;2024-02-14T15:28:55;15.20;99.90